SLCO/CIJ METAR and TAF weather

Enter ICAO airport designator
Station Type Date Time Source
SLCO METAR 2019/06/17 14:00 UTC NOAA

SLCO 171400Z 16010KT 9999 NSC 27/22 Q1018


Station Type Date Time Source
SLCO Decoded METAR 2019/06/17 14:00 UTC NOAA

Cobija, Bolivia (SLCO) 11-02S 068-47W 260M
Jun 17, 2019 - 10:00 AM EDT / 2019.06.17 1400 UTC
Wind: from the SSE (160 degrees) at 12 MPH (10 KT):0
Visibility: greater than 7 mile(s):0
Temperature: 80 F (27 C)
Dew Point: 71 F (22 C)
Relative Humidity: 74%
Pressure (altimeter): 30.06 in. Hg (1018 hPa)
ob: SLCO 171400Z 16010KT 9999 NSC 27/22 Q1018
cycle: 14

Station Type Date Time Source
SLCO TAF 2019/06/17 12:36 UTC NOAA

TAF SLCO 171035Z 1712/1812 00000KT 9999 FEW017 BKN080 TX33/1720Z TN21 /1811Z
BECMG 1714/1716 31006KT SCT020 BKN080 PROB40
TEMPO 1717/1721 8000 TSRA FEW020 FEW023CB BKN080

Example: see airport list